ADDS METAR Data INFO
IDs: Format: Raw Decoded Include TAF

Data at: 1525 UTC 18 Jun 2018

KGGP 181515Z AUTO 25011G16KT 10SM CLR 30/23 A3006 RMK AO2
KGGP 181455Z AUTO 25014G20KT 10SM CLR 30/23 A3006 RMK AO2
KGGP 181435Z AUTO 25015G18KT 10SM CLR 29/23 A3006 RMK AO2
KGGP 181415Z AUTO 25016G20KT 10SM CLR 28/22 A3006 RMK AO2
KGGP 181355Z AUTO 26016G19KT 10SM CLR 28/22 A3006 RMK AO2
KGGP 181335Z AUTO 25012G15KT 10SM CLR 27/23 A3006 RMK AO2
KGGP 181315Z AUTO 25009KT 10SM CLR 27/23 A3006 RMK AO2
KGGP 181255Z AUTO 24010KT 10SM CLR 26/22 A3006 RMK AO2
KGGP 181235Z AUTO 23008KT 10SM CLR 26/22 A3005 RMK AO2
KGGP 181215Z AUTO 23008KT 10SM CLR 25/22 A3005 RMK AO2
KGGP 181155Z AUTO 23008KT 7SM CLR 24/22 A3004 RMK AO2
KGGP 181135Z AUTO 23008KT 10SM CLR 23/22 A3004 RMK AO2
KGGP 181115Z AUTO 22007KT 10SM CLR 23/22 A3004 RMK AO2
KGGP 181055Z AUTO 21007KT 7SM CLR 23/21 A3004 RMK AO2
KGGP 181035Z AUTO 21005KT 5SM BR CLR 22/21 A3004 RMK AO2
KGGP 181015Z AUTO 20005KT 5SM BR CLR 22/21 A3004 RMK AO2
KGGP 180955Z AUTO 20005KT 7SM CLR 22/21 A3004 RMK AO2
KGGP 180935Z AUTO 22005KT 7SM CLR 22/21 A3004 RMK AO2
KGGP 180915Z AUTO 23005KT 10SM CLR 23/21 A3003 RMK AO2
KGGP 180855Z AUTO 23005KT 10SM CLR 23/22 A3003 RMK AO2
KGGP 180835Z AUTO 22006KT 10SM CLR 23/22 A3003 RMK AO2
KGGP 180810Z AUTO 21006KT 10SM CLR 23/22 A3003 RMK AO2
KGGP 180755Z AUTO 21004KT 10SM CLR 23/22 A3004 RMK AO2
KGGP 180735Z AUTO 21006KT 7SM CLR 23/22 A3003 RMK AO2
KGGP 180715Z AUTO 20005KT 10SM CLR 23/22 A3003 RMK AO2
KGGP 180655Z AUTO 20005KT 7SM CLR 23/22 A3004 RMK AO2
KGGP 180635Z AUTO 20005KT 7SM CLR 23/22 A3004 RMK AO2
KGGP 180615Z AUTO 20004KT 10SM CLR 23/22 A3005 RMK AO2
KGGP 180555Z AUTO 20005KT 10SM CLR 23/22 A3005 RMK AO2
KGGP 180535Z AUTO 20005KT 10SM CLR 23/22 A3006 RMK AO2
KGGP 180515Z AUTO 19006KT 10SM CLR 23/22 A3006 RMK AO2
KGGP 180455Z AUTO 19005KT 10SM CLR 23/22 A3006 RMK AO2
KGGP 180435Z AUTO 19005KT 10SM CLR 23/22 A3006 RMK AO2
KGGP 180415Z AUTO 19005KT 10SM CLR 24/22 A3006 RMK AO2
KGGP 180355Z AUTO 20004KT 10SM CLR 24/22 A3006 RMK AO2
KGGP 180335Z AUTO 19004KT 10SM CLR 24/22 A3005 RMK AO2
KGGP 180315Z AUTO 19004KT 10SM CLR 25/22 A3005 RMK AO2
KGGP 180255Z AUTO 19005KT 10SM CLR 25/22 A3005 RMK AO2
KGGP 180235Z AUTO 19004KT 10SM CLR 25/23 A3004 RMK AO2
KGGP 180215Z AUTO 19004KT 10SM CLR 26/23 A3003 RMK AO2
KGGP 180155Z AUTO 19005KT 10SM CLR 26/23 A3002 RMK AO2
KGGP 180135Z AUTO 20004KT 10SM CLR 26/23 A3002 RMK AO2
KGGP 180115Z AUTO 19005KT 10SM CLR 27/23 A3001 RMK AO2
KGGP 180055Z AUTO 20005KT 10SM CLR 28/23 A3001 RMK AO2
KGGP 180035Z AUTO 21005KT 10SM CLR 28/23 A3001 RMK AO2
KGGP 180015Z AUTO 22005KT 10SM CLR 29/23 A3001 RMK AO2
KGGP 172355Z AUTO 24005KT 10SM CLR 30/23 A3002 RMK AO2
KGGP 172330Z AUTO 24006KT 10SM CLR 30/23 A3002 RMK AO2
KGGP 172315Z AUTO 24008KT 10SM CLR 31/23 A3003 RMK AO2
KGGP 172255Z AUTO 23007KT 10SM CLR 31/23 A3003 RMK AO2
KGGP 172235Z AUTO 23006KT 10SM CLR 31/23 A3003 RMK AO2
KGGP 172215Z AUTO 22007KT 10SM CLR 32/23 A3004 RMK AO2
KGGP 172155Z AUTO 24008KT 10SM SCT047 32/22 A3004 RMK AO2
KGGP 172135Z AUTO 23008KT 10SM SCT047 32/22 A3004 RMK AO2
KGGP 172115Z AUTO 22009KT 10SM CLR 32/22 A3005 RMK AO2
KGGP 172055Z AUTO 24008KT 10SM CLR 32/22 A3005 RMK AO2
KGGP 172035Z AUTO 23007KT 10SM CLR 32/22 A3005 RMK AO2
KGGP 172015Z AUTO 24006KT 10SM CLR 32/22 A3006 RMK AO2
KGGP 171955Z AUTO 23008KT 10SM CLR 32/22 A3006 RMK AO2
KGGP 171935Z AUTO 23007KT 10SM CLR 32/22 A3006 RMK AO2
KGGP 171915Z AUTO 20007KT 10SM CLR 32/22 A3006 RMK AO2
KGGP 171855Z AUTO 22006KT 10SM SCT045 32/22 A3006 RMK AO2
KGGP 171835Z AUTO 23006KT 10SM CLR 32/22 A3007 RMK AO2
KGGP 171815Z AUTO 23005KT 10SM SCT038 SCT048 32/22 A3007 RMK AO2
KGGP 171755Z AUTO 24007KT 10SM SCT038 SCT048 31/23 A3007 RMK AO2
KGGP 171735Z AUTO 22005KT 10SM SCT038 SCT044 SCT050 31/22 A3008 RMK AO2
KGGP 171715Z AUTO 24005KT 10SM SCT036 31/22 A3008 RMK AO2
KGGP 171655Z AUTO 23005KT 10SM SCT036 SCT042 31/23 A3008 RMK AO2
KGGP 171635Z AUTO 23006KT 10SM CLR 31/23 A3009 RMK AO2
KGGP 171615Z AUTO 25004KT 10SM CLR 31/23 A3009 RMK AO2
KGGP 171555Z AUTO 25003KT 10SM CLR 30/23 A3009 RMK AO2
KGGP 171535Z AUTO 24006KT 10SM CLR 30/23 A3009 RMK AO2
KGGP 171515Z AUTO 24006KT 10SM CLR 30/23 A3010 RMK AO2
KGGP 171455Z AUTO 26006KT 10SM CLR 29/23 A3009 RMK AO2
KGGP 171435Z AUTO 24008KT 10SM CLR 28/23 A3009 RMK AO2
KGGP 171415Z AUTO 24008KT 10SM CLR 28/23 A3009 RMK AO2
KGGP 171355Z AUTO 24008KT 10SM CLR 27/23 A3009 RMK AO2
KGGP 171335Z AUTO 22008KT 10SM CLR 27/23 A3008 RMK AO2
KGGP 171315Z AUTO 24008KT 10SM CLR 26/22 A3008 RMK AO2
KGGP 171255Z AUTO 23006KT 10SM CLR 26/22 A3008 RMK AO2
KGGP 171235Z AUTO 22005KT 7SM CLR 25/22 A3008 RMK AO2
KGGP 171215Z AUTO 20004KT 7SM CLR 24/22 A3007 RMK AO2
KGGP 171155Z AUTO 19004KT 7SM CLR 23/21 A3007 RMK AO2
KGGP 171135Z AUTO 00000KT 5SM BR CLR 22/21 A3008 RMK AO2
KGGP 171115Z AUTO 18004KT 5SM BR CLR 22/21 A3008 RMK AO2
KGGP 171055Z AUTO 20003KT 5SM BR CLR 21/20 A3007 RMK AO2
KGGP 171035Z AUTO 21004KT 4SM BR CLR 21/20 A3007 RMK AO2
KGGP 171015Z AUTO 21005KT 5SM BR CLR 21/20 A3006 RMK AO2
KGGP 170955Z AUTO 20005KT 7SM CLR 22/21 A3005 RMK AO2
KGGP 170935Z AUTO 20006KT 7SM CLR 21/21 A3004 RMK AO2
KGGP 170915Z AUTO 20005KT 5SM BR CLR 21/21 A3004 RMK AO2
KGGP 170855Z AUTO 19005KT 7SM CLR 21/20 A3003 RMK AO2
KGGP 170835Z AUTO 18004KT 7SM CLR 21/21 A3004 RMK AO2
KGGP 170815Z AUTO 17003KT 5SM BR CLR 21/20 A3003 RMK AO2
KGGP 170755Z AUTO 00000KT 5SM BR CLR 21/20 A3005 RMK AO2
KGGP 170735Z AUTO 00000KT 7SM CLR 22/21 A3005 RMK AO2
KGGP 170715Z AUTO 00000KT 7SM CLR 22/21 A3004 RMK AO2
KGGP 170655Z AUTO 19004KT 10SM CLR 23/21 A3002 RMK AO2
KGGP 170635Z AUTO 21003KT 7SM CLR 22/21 A3001 RMK AO2
KGGP 170615Z AUTO 19005KT 7SM CLR 22/21 A2999 RMK AO2
KGGP 170555Z AUTO 19005KT 7SM CLR 22/21 A3001 RMK AO2
KGGP 170535Z AUTO 19005KT 10SM CLR 22/21 A3001 RMK AO2
KGGP 170515Z AUTO 18003KT 10SM CLR 23/22 A3002 RMK AO2
KGGP 170455Z AUTO 16004KT 10SM CLR 23/22 A3002 RMK AO2
KGGP 170436Z AUTO 19005KT 10SM CLR 24/22 A3002 RMK AO2
KGGP 170420Z AUTO 19004KT 10SM CLR 23/22 A3003 RMK AO2
KGGP 170355Z AUTO 18004KT 10SM CLR 24/22 A3003 RMK AO2
KGGP 170335Z AUTO 18004KT 10SM CLR 24/22 A3003 RMK AO2